sensor_id;sensor_type;location;lat;lon;timestamp;P1;P2;P0
68713;PMS7003;55690;51.566;19.198;2023-12-20T00:00:46;1;1;1
68713;PMS7003;55690;51.566;19.198;2023-12-20T00:04:52;9;6;4
68713;PMS7003;55690;51.566;19.198;2023-12-20T00:08:58;7;7;6
68713;PMS7003;55690;51.566;19.198;2023-12-20T00:13:04;14;5;2
68713;PMS7003;55690;51.566;19.198;2023-12-20T00:17:11;5;5;3
68713;PMS7003;55690;51.566;19.198;2023-12-20T00:21:17;2;2;2
68713;PMS7003;55690;51.566;19.198;2023-12-20T00:25:23;6;6;4
68713;PMS7003;55690;51.566;19.198;2023-12-20T00:29:29;8;5;3
68713;PMS7003;55690;51.566;19.198;2023-12-20T00:33:35;7;7;6
68713;PMS7003;55690;51.566;19.198;2023-12-20T00:37:42;5;5;3
68713;PMS7003;55690;51.566;19.198;2023-12-20T00:41:48;4;4;3
68713;PMS7003;55690;51.566;19.198;2023-12-20T00:45:54;6;5;3
68713;PMS7003;55690;51.566;19.198;2023-12-20T00:50:00;3;3;2
68713;PMS7003;55690;51.566;19.198;2023-12-20T00:54:06;6;6;4
68713;PMS7003;55690;51.566;19.198;2023-12-20T00:58:12;6;2;2
68713;PMS7003;55690;51.566;19.198;2023-12-20T01:02:18;3;3;2
68713;PMS7003;55690;51.566;19.198;2023-12-20T01:06:25;11;5;2
68713;PMS7003;55690;51.566;19.198;2023-12-20T01:10:33;5;5;4
68713;PMS7003;55690;51.566;19.198;2023-12-20T01:14:39;6;5;4
68713;PMS7003;55690;51.566;19.198;2023-12-20T01:18:46;8;7;6
68713;PMS7003;55690;51.566;19.198;2023-12-20T01:22:52;7;4;4
68713;PMS7003;55690;51.566;19.198;2023-12-20T01:26:58;3;3;2
68713;PMS7003;55690;51.566;19.198;2023-12-20T01:31:04;8;2;1
68713;PMS7003;55690;51.566;19.198;2023-12-20T01:35:10;9;4;3
68713;PMS7003;55690;51.566;19.198;2023-12-20T01:39:17;3;3;2
68713;PMS7003;55690;51.566;19.198;2023-12-20T01:43:23;5;5;3
68713;PMS7003;55690;51.566;19.198;2023-12-20T01:47:29;11;5;4
68713;PMS7003;55690;51.566;19.198;2023-12-20T01:51:35;3;3;3
68713;PMS7003;55690;51.566;19.198;2023-12-20T01:55:41;4;3;3
68713;PMS7003;55690;51.566;19.198;2023-12-20T01:59:47;2;2;2
68713;PMS7003;55690;51.566;19.198;2023-12-20T02:03:54;9;5;3
68713;PMS7003;55690;51.566;19.198;2023-12-20T02:08:00;2;2;2
68713;PMS7003;55690;51.566;19.198;2023-12-20T02:12:06;8;1;1
68713;PMS7003;55690;51.566;19.198;2023-12-20T02:16:12;6;3;2
68713;PMS7003;55690;51.566;19.198;2023-12-20T02:20:18;7;4;3
68713;PMS7003;55690;51.566;19.198;2023-12-20T02:24:24;4;4;3
68713;PMS7003;55690;51.566;19.198;2023-12-20T02:28:31;5;3;2
68713;PMS7003;55690;51.566;19.198;2023-12-20T02:32:37;8;5;5
68713;PMS7003;55690;51.566;19.198;2023-12-20T02:36:43;12;4;3
68713;PMS7003;55690;51.566;19.198;2023-12-20T02:40:49;6;4;4
68713;PMS7003;55690;51.566;19.198;2023-12-20T02:44:55;6;5;4
68713;PMS7003;55690;51.566;19.198;2023-12-20T02:49:01;5;5;4
68713;PMS7003;55690;51.566;19.198;2023-12-20T02:53:08;4;4;4
68713;PMS7003;55690;51.566;19.198;2023-12-20T02:57:14;8;6;4
68713;PMS7003;55690;51.566;19.198;2023-12-20T03:01:20;4;1;1
68713;PMS7003;55690;51.566;19.198;2023-12-20T03:05:26;5;3;3
68713;PMS7003;55690;51.566;19.198;2023-12-20T03:09:32;7;4;3
68713;PMS7003;55690;51.566;19.198;2023-12-20T03:13:38;1;1;1
68713;PMS7003;55690;51.566;19.198;2023-12-20T03:17:45;3;2;2
68713;PMS7003;55690;51.566;19.198;2023-12-20T03:21:51;2;2;1
68713;PMS7003;55690;51.566;19.198;2023-12-20T03:25:57;12;2;2
68713;PMS7003;55690;51.566;19.198;2023-12-20T03:30:03;0;0;0
68713;PMS7003;55690;51.566;19.198;2023-12-20T03:34:09;1;1;1
68713;PMS7003;55690;51.566;19.198;2023-12-20T03:38:16;4;4;3
68713;PMS7003;55690;51.566;19.198;2023-12-20T03:42:22;2;2;2
68713;PMS7003;55690;51.566;19.198;2023-12-20T03:46:28;4;4;3
68713;PMS7003;55690;51.566;19.198;2023-12-20T03:50:34;1;1;1
68713;PMS7003;55690;51.566;19.198;2023-12-20T03:54:40;3;3;2
68713;PMS7003;55690;51.566;19.198;2023-12-20T03:58:46;2;2;2
68713;PMS7003;55690;51.566;19.198;2023-12-20T04:02:53;2;2;1
68713;PMS7003;55690;51.566;19.198;2023-12-20T04:06:59;4;2;1
68713;PMS7003;55690;51.566;19.198;2023-12-20T04:11:05;12;2;2
68713;PMS7003;55690;51.566;19.198;2023-12-20T04:15:11;3;0;0
68713;PMS7003;55690;51.566;19.198;2023-12-20T04:19:17;0;0;0
68713;PMS7003;55690;51.566;19.198;2023-12-20T04:23:23;1;1;1
68713;PMS7003;55690;51.566;19.198;2023-12-20T04:27:30;0;0;0
68713;PMS7003;55690;51.566;19.198;2023-12-20T04:31:36;5;3;1
68713;PMS7003;55690;51.566;19.198;2023-12-20T04:35:42;1;1;0
68713;PMS7003;55690;51.566;19.198;2023-12-20T04:39:48;2;1;1
68713;PMS7003;55690;51.566;19.198;2023-12-20T04:43:54;1;1;1
68713;PMS7003;55690;51.566;19.198;2023-12-20T04:48:01;1;1;1
68713;PMS7003;55690;51.566;19.198;2023-12-20T04:52:07;1;1;0
68713;PMS7003;55690;51.566;19.198;2023-12-20T04:56:13;0;0;0
68713;PMS7003;55690;51.566;19.198;2023-12-20T05:00:19;0;0;0
68713;PMS7003;55690;51.566;19.198;2023-12-20T05:04:26;1;1;1
68713;PMS7003;55690;51.566;19.198;2023-12-20T05:08:32;0;0;0
68713;PMS7003;55690;51.566;19.198;2023-12-20T05:12:38;0;0;0
68713;PMS7003;55690;51.566;19.198;2023-12-20T05:16:44;1;1;1
68713;PMS7003;55690;51.566;19.198;2023-12-20T05:20:51;5;1;1
68713;PMS7003;55690;51.566;19.198;2023-12-20T05:24:57;0;0;0
68713;PMS7003;55690;51.566;19.198;2023-12-20T05:29:03;0;0;0
68713;PMS7003;55690;51.566;19.198;2023-12-20T05:33:09;0;0;0
68713;PMS7003;55690;51.566;19.198;2023-12-20T05:37:15;3;3;2
68713;PMS7003;55690;51.566;19.198;2023-12-20T05:41:21;1;1;1
68713;PMS7003;55690;51.566;19.198;2023-12-20T05:45:28;0;0;0
68713;PMS7003;55690;51.566;19.198;2023-12-20T05:49:34;0;0;0
68713;PMS7003;55690;51.566;19.198;2023-12-20T05:53:40;0;0;0
68713;PMS7003;55690;51.566;19.198;2023-12-20T05:57:46;0;0;0
68713;PMS7003;55690;51.566;19.198;2023-12-20T06:01:52;4;0;0
68713;PMS7003;55690;51.566;19.198;2023-12-20T06:05:59;0;0;0
68713;PMS7003;55690;51.566;19.198;2023-12-20T06:10:05;0;0;0
68713;PMS7003;55690;51.566;19.198;2023-12-20T06:14:11;0;0;0
68713;PMS7003;55690;51.566;19.198;2023-12-20T06:18:17;0;0;0
68713;PMS7003;55690;51.566;19.198;2023-12-20T06:22:23;0;0;0
68713;PMS7003;55690;51.566;19.198;2023-12-20T06:26:29;0;0;0
68713;PMS7003;55690;51.566;19.198;2023-12-20T06:30:36;1;0;0
68713;PMS7003;55690;51.566;19.198;2023-12-20T06:34:42;0;0;0
68713;PMS7003;55690;51.566;19.198;2023-12-20T06:38:48;2;0;0
68713;PMS7003;55690;51.566;19.198;2023-12-20T06:42:54;0;0;0
68713;PMS7003;55690;51.566;19.198;2023-12-20T06:47:00;0;0;0
68713;PMS7003;55690;51.566;19.198;2023-12-20T06:51:10;0;0;0
68713;PMS7003;55690;51.566;19.198;2023-12-20T06:55:13;0;0;0
68713;PMS7003;55690;51.566;19.198;2023-12-20T06:59:19;0;0;0
68713;PMS7003;55690;51.566;19.198;2023-12-20T07:03:25;0;0;0
68713;PMS7003;55690;51.566;19.198;2023-12-20T07:07:31;4;0;0
68713;PMS7003;55690;51.566;19.198;2023-12-20T07:11:37;0;0;0
68713;PMS7003;55690;51.566;19.198;2023-12-20T07:15:44;0;0;0
68713;PMS7003;55690;51.566;19.198;2023-12-20T07:19:50;0;0;0
68713;PMS7003;55690;51.566;19.198;2023-12-20T07:23:56;0;0;0
68713;PMS7003;55690;51.566;19.198;2023-12-20T07:28:02;0;0;0
68713;PMS7003;55690;51.566;19.198;2023-12-20T07:32:08;0;0;0
68713;PMS7003;55690;51.566;19.198;2023-12-20T07:36:14;1;1;0
68713;PMS7003;55690;51.566;19.198;2023-12-20T07:40:21;4;1;1
68713;PMS7003;55690;51.566;19.198;2023-12-20T07:44:27;2;1;1
68713;PMS7003;55690;51.566;19.198;2023-12-20T07:48:34;1;0;0
68713;PMS7003;55690;51.566;19.198;2023-12-20T07:52:39;0;0;0
68713;PMS7003;55690;51.566;19.198;2023-12-20T07:56:46;1;1;0
68713;PMS7003;55690;51.566;19.198;2023-12-20T08:00:51;0;0;0
68713;PMS7003;55690;51.566;19.198;2023-12-20T08:04:58;7;0;0
68713;PMS7003;55690;51.566;19.198;2023-12-20T08:09:04;2;0;0
68713;PMS7003;55690;51.566;19.198;2023-12-20T08:13:10;1;1;0
68713;PMS7003;55690;51.566;19.198;2023-12-20T08:17:16;1;1;1
68713;PMS7003;55690;51.566;19.198;2023-12-20T08:21:22;4;1;1
68713;PMS7003;55690;51.566;19.198;2023-12-20T08:25:29;1;1;1
68713;PMS7003;55690;51.566;19.198;2023-12-20T08:29:35;1;1;1
68713;PMS7003;55690;51.566;19.198;2023-12-20T08:33:41;1;1;0
68713;PMS7003;55690;51.566;19.198;2023-12-20T08:37:47;0;0;0
68713;PMS7003;55690;51.566;19.198;2023-12-20T08:41:53;1;1;0
68713;PMS7003;55690;51.566;19.198;2023-12-20T08:46:00;4;1;1
68713;PMS7003;55690;51.566;19.198;2023-12-20T08:50:06;2;2;1
68713;PMS7003;55690;51.566;19.198;2023-12-20T08:54:12;1;1;1
68713;PMS7003;55690;51.566;19.198;2023-12-20T08:58:18;0;0;0
68713;PMS7003;55690;51.566;19.198;2023-12-20T09:02:24;1;1;0
68713;PMS7003;55690;51.566;19.198;2023-12-20T09:06:30;1;1;1
68713;PMS7003;55690;51.566;19.198;2023-12-20T09:10:37;0;0;0
68713;PMS7003;55690;51.566;19.198;2023-12-20T09:14:43;1;1;0
68713;PMS7003;55690;51.566;19.198;2023-12-20T09:18:49;0;0;0
68713;PMS7003;55690;51.566;19.198;2023-12-20T09:22:55;1;1;1
68713;PMS7003;55690;51.566;19.198;2023-12-20T09:27:01;0;0;0
68713;PMS7003;55690;51.566;19.198;2023-12-20T09:31:08;7;0;0
68713;PMS7003;55690;51.566;19.198;2023-12-20T09:35:14;0;0;0
68713;PMS7003;55690;51.566;19.198;2023-12-20T09:39:20;0;0;0
68713;PMS7003;55690;51.566;19.198;2023-12-20T09:43:26;0;0;0
68713;PMS7003;55690;51.566;19.198;2023-12-20T09:47:32;0;0;0
68713;PMS7003;55690;51.566;19.198;2023-12-20T09:51:38;0;0;0
68713;PMS7003;55690;51.566;19.198;2023-12-20T09:55:45;0;0;0
68713;PMS7003;55690;51.566;19.198;2023-12-20T09:59:51;0;0;0
68713;PMS7003;55690;51.566;19.198;2023-12-20T10:03:57;0;0;0
68713;PMS7003;55690;51.566;19.198;2023-12-20T10:08:03;0;0;0
68713;PMS7003;55690;51.566;19.198;2023-12-20T10:12:09;0;0;0
68713;PMS7003;55690;51.566;19.198;2023-12-20T10:16:15;0;0;0
68713;PMS7003;55690;51.566;19.198;2023-12-20T10:20:22;0;0;0
68713;PMS7003;55690;51.566;19.198;2023-12-20T10:24:28;1;0;0
68713;PMS7003;55690;51.566;19.198;2023-12-20T10:28:34;2;0;0
68713;PMS7003;55690;51.566;19.198;2023-12-20T10:32:40;0;0;0
68713;PMS7003;55690;51.566;19.198;2023-12-20T10:36:46;0;0;0
68713;PMS7003;55690;51.566;19.198;2023-12-20T10:40:54;0;0;0
68713;PMS7003;55690;51.566;19.198;2023-12-20T10:45:00;1;0;0
68713;PMS7003;55690;51.566;19.198;2023-12-20T10:49:05;1;1;1
68713;PMS7003;55690;51.566;19.198;2023-12-20T10:53:11;1;1;1
68713;PMS7003;55690;51.566;19.198;2023-12-20T10:57:18;0;0;0
68713;PMS7003;55690;51.566;19.198;2023-12-20T11:01:23;1;1;1
68713;PMS7003;55690;51.566;19.198;2023-12-20T11:05:33;2;0;0
68713;PMS7003;55690;51.566;19.198;2023-12-20T11:09:45;0;0;0
68713;PMS7003;55690;51.566;19.198;2023-12-20T11:13:58;2;2;2
68713;PMS7003;55690;51.566;19.198;2023-12-20T11:18:03;0;0;0
68713;PMS7003;55690;51.566;19.198;2023-12-20T11:22:07;1;1;0
68713;PMS7003;55690;51.566;19.198;2023-12-20T11:26:08;0;0;0
68713;PMS7003;55690;51.566;19.198;2023-12-20T11:30:10;1;1;0
68713;PMS7003;55690;51.566;19.198;2023-12-20T11:34:13;0;0;0
68713;PMS7003;55690;51.566;19.198;2023-12-20T11:38:19;1;0;0
68713;PMS7003;55690;51.566;19.198;2023-12-20T11:42:25;0;0;0
68713;PMS7003;55690;51.566;19.198;2023-12-20T11:46:31;2;0;0
68713;PMS7003;55690;51.566;19.198;2023-12-20T11:50:38;2;2;1
68713;PMS7003;55690;51.566;19.198;2023-12-20T11:54:44;2;1;1
68713;PMS7003;55690;51.566;19.198;2023-12-20T11:58:50;0;0;0
68713;PMS7003;55690;51.566;19.198;2023-12-20T12:02:57;3;1;1
68713;PMS7003;55690;51.566;19.198;2023-12-20T12:07:02;1;1;1
68713;PMS7003;55690;51.566;19.198;2023-12-20T12:11:08;1;1;0
68713;PMS7003;55690;51.566;19.198;2023-12-20T12:15:15;0;0;0
68713;PMS7003;55690;51.566;19.198;2023-12-20T12:19:21;2;2;1
68713;PMS7003;55690;51.566;19.198;2023-12-20T12:23:27;4;1;1
68713;PMS7003;55690;51.566;19.198;2023-12-20T12:27:33;0;0;0
68713;PMS7003;55690;51.566;19.198;2023-12-20T12:31:39;1;1;1
68713;PMS7003;55690;51.566;19.198;2023-12-20T12:35:46;2;2;1
68713;PMS7003;55690;51.566;19.198;2023-12-20T12:39:55;1;1;0
68713;PMS7003;55690;51.566;19.198;2023-12-20T12:43:58;3;0;0
68713;PMS7003;55690;51.566;19.198;2023-12-20T12:48:05;0;0;0
68713;PMS7003;55690;51.566;19.198;2023-12-20T12:52:10;3;1;1
68713;PMS7003;55690;51.566;19.198;2023-12-20T12:56:16;1;1;1
68713;PMS7003;55690;51.566;19.198;2023-12-20T13:00:23;0;0;0
68713;PMS7003;55690;51.566;19.198;2023-12-20T13:04:29;0;0;0
68713;PMS7003;55690;51.566;19.198;2023-12-20T13:08:36;1;1;0
68713;PMS7003;55690;51.566;19.198;2023-12-20T13:12:42;1;0;0
68713;PMS7003;55690;51.566;19.198;2023-12-20T13:16:48;0;0;0
68713;PMS7003;55690;51.566;19.198;2023-12-20T13:20:54;1;1;1
68713;PMS7003;55690;51.566;19.198;2023-12-20T13:25:00;5;1;1
68713;PMS7003;55690;51.566;19.198;2023-12-20T13:29:06;1;1;1
68713;PMS7003;55690;51.566;19.198;2023-12-20T13:33:13;3;3;2
68713;PMS7003;55690;51.566;19.198;2023-12-20T13:37:19;1;0;0
68713;PMS7003;55690;51.566;19.198;2023-12-20T13:41:25;0;0;0
68713;PMS7003;55690;51.566;19.198;2023-12-20T13:45:31;0;0;0
68713;PMS7003;55690;51.566;19.198;2023-12-20T13:49:37;0;0;0
68713;PMS7003;55690;51.566;19.198;2023-12-20T13:53:44;0;0;0
68713;PMS7003;55690;51.566;19.198;2023-12-20T13:57:50;0;0;0
68713;PMS7003;55690;51.566;19.198;2023-12-20T14:01:56;1;1;0
68713;PMS7003;55690;51.566;19.198;2023-12-20T14:06:02;4;0;0
68713;PMS7003;55690;51.566;19.198;2023-12-20T14:10:08;0;0;0
68713;PMS7003;55690;51.566;19.198;2023-12-20T14:14:14;0;0;0
68713;PMS7003;55690;51.566;19.198;2023-12-20T14:18:21;0;0;0
68713;PMS7003;55690;51.566;19.198;2023-12-20T14:22:27;0;0;0
68713;PMS7003;55690;51.566;19.198;2023-12-20T14:26:33;0;0;0
68713;PMS7003;55690;51.566;19.198;2023-12-20T14:30:39;0;0;0
68713;PMS7003;55690;51.566;19.198;2023-12-20T14:34:45;0;0;0
68713;PMS7003;55690;51.566;19.198;2023-12-20T14:38:52;0;0;0
68713;PMS7003;55690;51.566;19.198;2023-12-20T14:42:58;1;1;1
68713;PMS7003;55690;51.566;19.198;2023-12-20T14:47:04;0;0;0
68713;PMS7003;55690;51.566;19.198;2023-12-20T14:51:10;0;0;0
68713;PMS7003;55690;51.566;19.198;2023-12-20T14:55:16;2;0;0
68713;PMS7003;55690;51.566;19.198;2023-12-20T14:59:22;0;0;0
68713;PMS7003;55690;51.566;19.198;2023-12-20T15:03:29;0;0;0
68713;PMS7003;55690;51.566;19.198;2023-12-20T15:07:35;0;0;0
68713;PMS7003;55690;51.566;19.198;2023-12-20T15:11:41;3;0;0
68713;PMS7003;55690;51.566;19.198;2023-12-20T15:15:47;1;0;0
68713;PMS7003;55690;51.566;19.198;2023-12-20T15:19:53;0;0;0
68713;PMS7003;55690;51.566;19.198;2023-12-20T15:23:59;0;0;0
68713;PMS7003;55690;51.566;19.198;2023-12-20T15:28:12;0;0;0
68713;PMS7003;55690;51.566;19.198;2023-12-20T15:32:13;0;0;0
68713;PMS7003;55690;51.566;19.198;2023-12-20T15:36:18;0;0;0
68713;PMS7003;55690;51.566;19.198;2023-12-20T15:40:25;3;1;0
68713;PMS7003;55690;51.566;19.198;2023-12-20T15:44:30;1;1;1
68713;PMS7003;55690;51.566;19.198;2023-12-20T15:48:36;0;0;0
68713;PMS7003;55690;51.566;19.198;2023-12-20T15:52:43;2;2;1
68713;PMS7003;55690;51.566;19.198;2023-12-20T15:56:49;5;0;0
68713;PMS7003;55690;51.566;19.198;2023-12-20T16:00:55;1;1;1
68713;PMS7003;55690;51.566;19.198;2023-12-20T16:05:01;4;1;1
68713;PMS7003;55690;51.566;19.198;2023-12-20T16:09:07;0;0;0
68713;PMS7003;55690;51.566;19.198;2023-12-20T16:13:14;1;1;0
68713;PMS7003;55690;51.566;19.198;2023-12-20T16:17:20;1;1;1
68713;PMS7003;55690;51.566;19.198;2023-12-20T16:21:26;4;4;3
68713;PMS7003;55690;51.566;19.198;2023-12-20T16:25:32;2;1;1
68713;PMS7003;55690;51.566;19.198;2023-12-20T16:29:38;4;2;2
68713;PMS7003;55690;51.566;19.198;2023-12-20T16:33:44;2;2;2
68713;PMS7003;55690;51.566;19.198;2023-12-20T16:37:51;0;0;0
68713;PMS7003;55690;51.566;19.198;2023-12-20T16:41:57;1;1;1
68713;PMS7003;55690;51.566;19.198;2023-12-20T16:46:03;3;2;2
68713;PMS7003;55690;51.566;19.198;2023-12-20T16:50:09;1;1;1
68713;PMS7003;55690;51.566;19.198;2023-12-20T16:54:15;1;1;0
68713;PMS7003;55690;51.566;19.198;2023-12-20T16:58:21;2;1;1
68713;PMS7003;55690;51.566;19.198;2023-12-20T17:02:28;5;3;2
68713;PMS7003;55690;51.566;19.198;2023-12-20T17:06:34;2;2;1
68713;PMS7003;55690;51.566;19.198;2023-12-20T17:10:40;0;0;0
68713;PMS7003;55690;51.566;19.198;2023-12-20T17:14:46;2;1;1
68713;PMS7003;55690;51.566;19.198;2023-12-20T17:18:52;0;0;0
68713;PMS7003;55690;51.566;19.198;2023-12-20T17:22:59;1;1;1
68713;PMS7003;55690;51.566;19.198;2023-12-20T17:27:05;1;1;1
68713;PMS7003;55690;51.566;19.198;2023-12-20T17:31:11;0;0;0
68713;PMS7003;55690;51.566;19.198;2023-12-20T17:35:17;2;1;1
68713;PMS7003;55690;51.566;19.198;2023-12-20T17:39:23;0;0;0
68713;PMS7003;55690;51.566;19.198;2023-12-20T17:43:29;0;0;0
68713;PMS7003;55690;51.566;19.198;2023-12-20T17:47:36;1;1;0
68713;PMS7003;55690;51.566;19.198;2023-12-20T17:51:42;0;0;0
68713;PMS7003;55690;51.566;19.198;2023-12-20T17:55:48;2;2;2
68713;PMS7003;55690;51.566;19.198;2023-12-20T17:59:54;7;1;0
68713;PMS7003;55690;51.566;19.198;2023-12-20T18:04:00;3;0;0
68713;PMS7003;55690;51.566;19.198;2023-12-20T18:08:06;1;1;1
68713;PMS7003;55690;51.566;19.198;2023-12-20T18:12:13;7;2;1
68713;PMS7003;55690;51.566;19.198;2023-12-20T18:16:19;0;0;0
68713;PMS7003;55690;51.566;19.198;2023-12-20T18:20:25;9;0;0
68713;PMS7003;55690;51.566;19.198;2023-12-20T18:24:31;0;0;0
68713;PMS7003;55690;51.566;19.198;2023-12-20T18:28:38;1;1;1
68713;PMS7003;55690;51.566;19.198;2023-12-20T18:32:44;5;1;1
68713;PMS7003;55690;51.566;19.198;2023-12-20T18:36:50;0;0;0
68713;PMS7003;55690;51.566;19.198;2023-12-20T18:40:56;1;1;0
68713;PMS7003;55690;51.566;19.198;2023-12-20T18:45:02;0;0;0
68713;PMS7003;55690;51.566;19.198;2023-12-20T18:49:08;2;2;2
68713;PMS7003;55690;51.566;19.198;2023-12-20T18:53:14;1;1;0
68713;PMS7003;55690;51.566;19.198;2023-12-20T18:57:21;0;0;0
68713;PMS7003;55690;51.566;19.198;2023-12-20T19:01:27;0;0;0
68713;PMS7003;55690;51.566;19.198;2023-12-20T19:05:33;1;0;0
68713;PMS7003;55690;51.566;19.198;2023-12-20T19:09:39;1;0;0
68713;PMS7003;55690;51.566;19.198;2023-12-20T19:13:45;0;0;0
68713;PMS7003;55690;51.566;19.198;2023-12-20T19:17:52;0;0;0
68713;PMS7003;55690;51.566;19.198;2023-12-20T19:21:58;0;0;0
68713;PMS7003;55690;51.566;19.198;2023-12-20T19:26:04;0;0;0
68713;PMS7003;55690;51.566;19.198;2023-12-20T19:30:11;0;0;0
68713;PMS7003;55690;51.566;19.198;2023-12-20T19:34:16;0;0;0
68713;PMS7003;55690;51.566;19.198;2023-12-20T19:38:22;0;0;0
68713;PMS7003;55690;51.566;19.198;2023-12-20T19:42:29;0;0;0
68713;PMS7003;55690;51.566;19.198;2023-12-20T19:46:35;0;0;0
68713;PMS7003;55690;51.566;19.198;2023-12-20T19:50:41;1;1;1
68713;PMS7003;55690;51.566;19.198;2023-12-20T19:54:47;3;1;1
68713;PMS7003;55690;51.566;19.198;2023-12-20T19:58:53;1;0;0
68713;PMS7003;55690;51.566;19.198;2023-12-20T20:02:59;4;0;0
68713;PMS7003;55690;51.566;19.198;2023-12-20T20:07:06;0;0;0
68713;PMS7003;55690;51.566;19.198;2023-12-20T20:11:14;1;1;0
68713;PMS7003;55690;51.566;19.198;2023-12-20T20:15:18;1;1;1
68713;PMS7003;55690;51.566;19.198;2023-12-20T20:19:24;2;2;1
68713;PMS7003;55690;51.566;19.198;2023-12-20T20:23:30;1;0;0
68713;PMS7003;55690;51.566;19.198;2023-12-20T20:27:37;4;1;1
68713;PMS7003;55690;51.566;19.198;2023-12-20T20:31:43;2;1;1
68713;PMS7003;55690;51.566;19.198;2023-12-20T20:35:49;2;2;1
68713;PMS7003;55690;51.566;19.198;2023-12-20T20:39:55;1;1;1
68713;PMS7003;55690;51.566;19.198;2023-12-20T20:44:01;2;0;0
68713;PMS7003;55690;51.566;19.198;2023-12-20T20:48:07;0;0;0
68713;PMS7003;55690;51.566;19.198;2023-12-20T20:52:14;1;1;1
68713;PMS7003;55690;51.566;19.198;2023-12-20T20:56:20;1;0;0
68713;PMS7003;55690;51.566;19.198;2023-12-20T21:00:26;1;0;0
68713;PMS7003;55690;51.566;19.198;2023-12-20T21:04:32;0;0;0
68713;PMS7003;55690;51.566;19.198;2023-12-20T21:08:38;0;0;0
68713;PMS7003;55690;51.566;19.198;2023-12-20T21:12:45;2;0;0
68713;PMS7003;55690;51.566;19.198;2023-12-20T21:16:51;0;0;0
68713;PMS7003;55690;51.566;19.198;2023-12-20T21:20:57;0;0;0
68713;PMS7003;55690;51.566;19.198;2023-12-20T21:25:03;0;0;0
68713;PMS7003;55690;51.566;19.198;2023-12-20T21:29:09;0;0;0
68713;PMS7003;55690;51.566;19.198;2023-12-20T21:33:16;0;0;0
68713;PMS7003;55690;51.566;19.198;2023-12-20T21:37:22;15;0;0
68713;PMS7003;55690;51.566;19.198;2023-12-20T21:41:28;0;0;0
68713;PMS7003;55690;51.566;19.198;2023-12-20T21:45:34;1;1;1
68713;PMS7003;55690;51.566;19.198;2023-12-20T21:49:40;0;0;0
68713;PMS7003;55690;51.566;19.198;2023-12-20T21:53:46;0;0;0
68713;PMS7003;55690;51.566;19.198;2023-12-20T21:57:52;0;0;0
68713;PMS7003;55690;51.566;19.198;2023-12-20T22:01:59;0;0;0
68713;PMS7003;55690;51.566;19.198;2023-12-20T22:06:05;0;0;0
68713;PMS7003;55690;51.566;19.198;2023-12-20T22:10:11;1;1;0
68713;PMS7003;55690;51.566;19.198;2023-12-20T22:14:17;1;0;0
68713;PMS7003;55690;51.566;19.198;2023-12-20T22:18:23;2;0;0
68713;PMS7003;55690;51.566;19.198;2023-12-20T22:22:30;0;0;0
68713;PMS7003;55690;51.566;19.198;2023-12-20T22:26:36;0;0;0
68713;PMS7003;55690;51.566;19.198;2023-12-20T22:30:42;0;0;0
68713;PMS7003;55690;51.566;19.198;2023-12-20T22:34:48;0;0;0
68713;PMS7003;55690;51.566;19.198;2023-12-20T22:38:54;0;0;0
68713;PMS7003;55690;51.566;19.198;2023-12-20T22:43:00;0;0;0
68713;PMS7003;55690;51.566;19.198;2023-12-20T22:47:07;8;0;0
68713;PMS7003;55690;51.566;19.198;2023-12-20T22:51:13;0;0;0
68713;PMS7003;55690;51.566;19.198;2023-12-20T22:55:19;0;0;0
68713;PMS7003;55690;51.566;19.198;2023-12-20T22:59:25;1;0;0
68713;PMS7003;55690;51.566;19.198;2023-12-20T23:03:31;0;0;0
68713;PMS7003;55690;51.566;19.198;2023-12-20T23:07:38;0;0;0
68713;PMS7003;55690;51.566;19.198;2023-12-20T23:11:44;0;0;0
68713;PMS7003;55690;51.566;19.198;2023-12-20T23:15:50;2;0;0
68713;PMS7003;55690;51.566;19.198;2023-12-20T23:19:56;0;0;0
68713;PMS7003;55690;51.566;19.198;2023-12-20T23:24:03;0;0;0
68713;PMS7003;55690;51.566;19.198;2023-12-20T23:28:08;0;0;0
68713;PMS7003;55690;51.566;19.198;2023-12-20T23:32:15;6;0;0
68713;PMS7003;55690;51.566;19.198;2023-12-20T23:36:21;1;0;0
68713;PMS7003;55690;51.566;19.198;2023-12-20T23:40:27;0;0;0
68713;PMS7003;55690;51.566;19.198;2023-12-20T23:44:33;2;0;0
68713;PMS7003;55690;51.566;19.198;2023-12-20T23:48:39;3;1;1
68713;PMS7003;55690;51.566;19.198;2023-12-20T23:52:45;1;1;0
68713;PMS7003;55690;51.566;19.198;2023-12-20T23:56:52;4;1;0
